Time;durP1;ratioP1;P1;durP2;ratioP2;P2;SDS_P1;SDS_P2;PMS_P1;PMS_P2;Temp;Humidity;BMP_temperature;BMP_pressure;BME280_temperature;BME280_humidity;BME280_pressure;Samples;Min_cycle;Max_cycle;Signal;HPM_P1;HPM_P2
2022/07/04 00:00:06;;;;;;;1.50;1.50;;;22.10;84.30;;;;;;4991068;28;20612;-65
2022/07/04 00:02:33;;;;;;;1.70;1.60;;;22.00;84.50;;;;;;4986985;28;20732;-64
2022/07/04 00:05:00;;;;;;;1.93;1.70;;;22.00;84.90;;;;;;4969664;28;20627;-69
2022/07/04 00:07:27;;;;;;;1.83;1.73;;;22.00;84.80;;;;;;4971390;28;20655;-67
2022/07/04 00:09:55;;;;;;;1.53;1.43;;;22.00;84.90;;;;;;4983100;28;21198;-65
2022/07/04 00:12:22;;;;;;;2.00;1.70;;;22.10;84.90;;;;;;4991115;28;20685;-66
2022/07/04 00:14:48;;;;;;;2.03;1.83;;;22.10;84.90;;;;;;4992097;28;20621;-66
2022/07/04 00:17:15;;;;;;;1.63;1.57;;;22.10;85.10;;;;;;4985318;28;20631;-67
2022/07/04 00:19:42;;;;;;;2.27;1.57;;;22.10;84.90;;;;;;4974983;28;20607;-68
2022/07/04 00:22:09;;;;;;;2.00;1.50;;;22.10;85.00;;;;;;4982153;28;20667;-65
2022/07/04 00:24:36;;;;;;;1.20;1.20;;;22.00;85.40;;;;;;4976428;28;20997;-65
2022/07/04 00:27:03;;;;;;;1.30;1.30;;;22.10;85.40;;;;;;4976229;28;20757;-68
2022/07/04 00:29:29;;;;;;;1.50;1.40;;;22.00;85.50;;;;;;4993301;28;20645;-65
2022/07/04 00:31:56;;;;;;;1.43;1.33;;;22.00;86.00;;;;;;4994626;28;20676;-65
2022/07/04 00:34:23;;;;;;;1.60;1.50;;;22.00;86.40;;;;;;4985630;28;20639;-66
2022/07/04 00:36:50;;;;;;;1.37;1.37;;;22.00;87.10;;;;;;4983716;28;20630;-66
2022/07/04 00:39:17;;;;;;;1.37;1.27;;;22.10;87.30;;;;;;4985634;28;20645;-68
2022/07/04 00:41:44;;;;;;;1.53;1.43;;;22.00;87.80;;;;;;4986448;28;20665;-66
2022/07/04 00:44:12;;;;;;;1.10;1.10;;;21.90;88.00;;;;;;4974363;28;20642;-66
2022/07/04 00:46:41;;;;;;;1.13;1.13;;;21.80;88.60;;;;;;4974377;28;20710;-66
2022/07/04 00:49:09;;;;;;;1.60;1.50;;;21.70;89.00;;;;;;4974530;28;20647;-66
2022/07/04 00:51:38;;;;;;;1.50;1.40;;;21.70;89.20;;;;;;4982003;28;20671;-66
2022/07/04 00:54:07;;;;;;;1.50;1.50;;;21.70;89.40;;;;;;4979692;28;20637;-65
2022/07/04 00:56:39;;;;;;;1.60;1.50;;;21.70;89.70;;;;;;4985705;28;20851;-66
2022/07/04 00:59:06;;;;;;;1.50;1.40;;;21.60;89.60;;;;;;4988515;28;20634;-66
2022/07/04 01:01:34;;;;;;;1.73;1.53;;;21.60;89.70;;;;;;4992941;28;20650;-68
2022/07/04 01:04:04;;;;;;;2.70;1.43;;;21.50;90.10;;;;;;4980656;28;20998;-67
2022/07/04 01:06:31;;;;;;;1.20;1.20;;;21.50;90.20;;;;;;4986922;28;20639;-66
2022/07/04 01:08:59;;;;;;;1.10;1.10;;;21.50;90.30;;;;;;4980777;28;20630;-66
2022/07/04 01:11:26;;;;;;;1.37;1.30;;;21.40;90.50;;;;;;4989630;28;21186;-66
2022/07/04 01:13:54;;;;;;;7.40;1.20;;;21.40;90.70;;;;;;4973587;28;20726;-69
2022/07/04 01:16:21;;;;;;;1.40;1.30;;;21.30;90.80;;;;;;4973996;28;20603;-66
2022/07/04 01:18:48;;;;;;;1.33;1.30;;;21.20;91.40;;;;;;4979268;28;20630;-65
2022/07/04 01:21:15;;;;;;;6.07;1.20;;;21.00;91.30;;;;;;4993965;28;20740;-66
2022/07/04 01:23:42;;;;;;;1.30;1.20;;;21.00;91.50;;;;;;4992905;28;20750;-66
2022/07/04 01:26:09;;;;;;;2.10;1.90;;;20.90;91.60;;;;;;4993474;28;20730;-63
2022/07/04 01:28:37;;;;;;;1.50;1.40;;;20.90;91.70;;;;;;4993005;28;20626;-66
2022/07/04 01:31:04;;;;;;;1.30;1.30;;;20.80;91.90;;;;;;4994424;28;20995;-66
2022/07/04 01:33:32;;;;;;;2.10;1.30;;;20.70;92.00;;;;;;4980661;28;20641;-66
2022/07/04 01:35:59;;;;;;;1.47;1.17;;;20.70;91.90;;;;;;4975091;28;20717;-65
2022/07/04 01:38:26;;;;;;;1.00;1.00;;;20.70;92.00;;;;;;4971933;28;20635;-66
2022/07/04 01:40:53;;;;;;;1.60;1.40;;;20.70;92.00;;;;;;4973663;28;20658;-66
2022/07/04 01:43:20;;;;;;;1.10;1.10;;;20.60;92.30;;;;;;4973036;28;21047;-68
2022/07/04 01:45:47;;;;;;;1.20;1.17;;;20.60;92.20;;;;;;4973962;28;20620;-64
2022/07/04 01:48:14;;;;;;;1.83;1.10;;;20.50;92.40;;;;;;4982426;28;20641;-64
2022/07/04 01:50:41;;;;;;;1.10;1.10;;;20.60;92.50;;;;;;4994166;28;20644;-65
2022/07/04 01:53:08;;;;;;;1.10;1.10;;;20.50;92.50;;;;;;4991967;28;20662;-67
2022/07/04 01:55:35;;;;;;;3.60;1.20;;;20.50;92.60;;;;;;4992389;28;20644;-65
2022/07/04 01:58:02;;;;;;;1.33;1.30;;;20.50;92.70;;;;;;4992371;28;20709;-66
2022/07/04 02:03:14;;;;;;;2.30;1.33;;;20.40;93.00;;;;;;4978456;28;20641;-65
2022/07/04 02:05:43;;;;;;;1.43;1.33;;;20.30;93.30;;;;;;4973940;28;20623;-65
2022/07/04 02:08:10;;;;;;;1.43;1.40;;;20.20;93.50;;;;;;4973697;28;20623;-65
2022/07/04 02:10:37;;;;;;;1.03;1.03;;;20.10;93.80;;;;;;4977083;28;21217;-66
2022/07/04 02:13:04;;;;;;;2.70;1.37;;;20.00;94.10;;;;;;4990166;28;20673;-64
2022/07/04 02:15:36;;;;;;;1.53;1.47;;;19.90;94.30;;;;;;4973211;28;20619;-65
2022/07/04 02:18:06;;;;;;;2.13;1.53;;;19.90;94.60;;;;;;4972678;28;20635;-67
2022/07/04 02:20:34;;;;;;;1.83;1.50;;;19.80;95.10;;;;;;4973262;28;20647;-66
2022/07/04 02:23:01;;;;;;;1.43;1.33;;;19.80;95.00;;;;;;4973351;28;20710;-66
2022/07/04 02:25:28;;;;;;;2.00;1.50;;;19.70;95.30;;;;;;4972189;28;20730;-66
2022/07/04 02:27:56;;;;;;;1.50;1.40;;;19.70;95.40;;;;;;4973394;28;21093;-66
2022/07/04 02:30:24;;;;;;;1.60;1.50;;;19.70;95.70;;;;;;4973426;28;20651;-66
2022/07/04 02:32:51;;;;;;;3.23;1.70;;;19.60;95.90;;;;;;4973927;28;20669;-66
2022/07/04 02:35:17;;;;;;;1.20;1.20;;;19.60;96.10;;;;;;4974577;28;20623;-67
2022/07/04 02:37:44;;;;;;;1.50;1.50;;;19.60;96.20;;;;;;4972666;28;20722;-66
2022/07/04 02:40:11;;;;;;;1.20;1.20;;;19.60;96.50;;;;;;4975289;28;20684;-65
2022/07/04 02:42:40;;;;;;;1.83;1.27;;;19.60;96.70;;;;;;4992299;28;20646;-66
2022/07/04 02:45:08;;;;;;;1.17;1.17;;;19.50;97.10;;;;;;4991599;28;20622;-67
2022/07/04 02:47:35;;;;;;;2.73;1.80;;;19.40;97.30;;;;;;4991406;28;20624;-66
2022/07/04 02:50:03;;;;;;;1.70;1.60;;;19.40;97.70;;;;;;4992396;28;20626;-67
2022/07/04 02:52:30;;;;;;;1.53;1.17;;;19.30;97.80;;;;;;4991771;28;20753;-69
2022/07/04 02:54:57;;;;;;;1.20;1.20;;;19.30;98.10;;;;;;4991868;28;20681;-65
2022/07/04 02:57:25;;;;;;;1.70;1.60;;;19.20;98.40;;;;;;4991482;28;21038;-66
2022/07/04 02:59:51;;;;;;;1.60;1.50;;;19.20;98.60;;;;;;4990233;28;20630;-66
2022/07/04 03:02:18;;;;;;;1.43;1.30;;;19.20;98.80;;;;;;4991503;28;20649;-64
2022/07/04 03:04:45;;;;;;;1.33;1.23;;;19.20;98.90;;;;;;4971837;28;21179;-66
2022/07/04 03:07:13;;;;;;;1.53;1.43;;;19.20;98.90;;;;;;4972837;28;20661;-68
2022/07/04 03:09:40;;;;;;;1.63;1.53;;;19.20;99.10;;;;;;4971524;28;20615;-66
2022/07/04 03:12:07;;;;;;;1.40;1.30;;;19.20;99.30;;;;;;4979150;28;21122;-66
2022/07/04 03:14:34;;;;;;;1.70;1.60;;;19.20;99.30;;;;;;4991978;28;21130;-66
2022/07/04 03:17:01;;;;;;;1.70;1.60;;;19.20;99.50;;;;;;4985141;28;20631;-65
2022/07/04 03:19:28;;;;;;;1.60;1.60;;;19.20;99.70;;;;;;4971812;28;20635;-66
2022/07/04 03:21:55;;;;;;;1.43;1.43;;;19.20;99.80;;;;;;4971808;28;20655;-66
2022/07/04 03:24:21;;;;;;;1.83;1.73;;;19.20;99.90;;;;;;4972565;28;20646;-66
2022/07/04 03:26:48;;;;;;;1.47;1.37;;;19.20;99.90;;;;;;4975072;28;20649;-69
2022/07/04 03:29:15;;;;;;;1.80;1.70;;;19.20;99.90;;;;;;4990857;28;20622;-65
2022/07/04 03:31:42;;;;;;;1.70;1.60;;;19.10;99.90;;;;;;4990322;28;20674;-68
2022/07/04 03:34:09;;;;;;;2.13;2.03;;;19.20;99.90;;;;;;4977819;28;20639;-69
2022/07/04 03:36:35;;;;;;;1.97;1.80;;;19.20;99.90;;;;;;4971501;28;21206;-67
2022/07/04 03:39:02;;;;;;;1.80;1.70;;;19.20;99.90;;;;;;4969846;28;20747;-67
2022/07/04 03:41:29;;;;;;;1.80;1.70;;;19.20;99.90;;;;;;4980903;28;20753;-67
2022/07/04 03:43:56;;;;;;;2.27;1.97;;;19.20;99.90;;;;;;4980892;28;21260;-67
2022/07/04 03:46:23;;;;;;;2.67;2.13;;;19.20;99.90;;;;;;4975402;28;20633;-66
2022/07/04 03:48:50;;;;;;;1.70;1.60;;;19.20;99.90;;;;;;4979096;28;20670;-68
2022/07/04 03:51:17;;;;;;;3.60;2.00;;;19.10;99.90;;;;;;4990110;28;21595;-66
2022/07/04 03:53:44;;;;;;;2.37;2.20;;;19.30;99.90;;;;;;4989284;28;20736;-65
2022/07/04 03:56:11;;;;;;;2.23;2.00;;;19.30;99.90;;;;;;4987773;28;20635;-67
2022/07/04 03:58:39;;;;;;;1.70;1.60;;;19.40;99.90;;;;;;4981843;28;20650;-66
2022/07/04 04:01:06;;;;;;;1.87;1.77;;;19.60;99.90;;;;;;4989747;28;20662;-66
2022/07/04 04:06:18;;;;;;;2.20;2.10;;;19.70;99.80;;;;;;4963439;28;21237;-66
2022/07/04 04:08:45;;;;;;;2.20;2.00;;;19.70;99.80;;;;;;4970212;28;20654;-66
2022/07/04 04:11:11;;;;;;;2.47;2.27;;;19.70;99.80;;;;;;4971888;28;20647;-66
2022/07/04 04:13:38;;;;;;;1.90;1.90;;;19.80;99.60;;;;;;4971487;28;20658;-66
2022/07/04 04:16:05;;;;;;;2.80;2.10;;;20.10;99.10;;;;;;4969420;28;20640;-68
2022/07/04 04:18:32;;;;;;;3.20;2.27;;;20.20;98.80;;;;;;4974822;28;20659;-67
2022/07/04 04:20:59;;;;;;;3.03;2.07;;;20.40;98.30;;;;;;4973712;28;20667;-67
2022/07/04 04:23:25;;;;;;;1.93;1.83;;;20.60;97.90;;;;;;4970594;28;20627;-70
2022/07/04 04:25:52;;;;;;;1.83;1.73;;;20.80;97.60;;;;;;4971675;28;20629;-66
2022/07/04 04:28:22;;;;;;;2.23;2.13;;;20.80;97.30;;;;;;4976551;28;20638;-66
2022/07/04 04:30:50;;;;;;;2.10;2.00;;;20.90;97.20;;;;;;4990520;28;20732;-67
2022/07/04 04:33:17;;;;;;;2.03;1.93;;;21.00;96.90;;;;;;4978066;28;20770;-66
2022/07/04 04:35:44;;;;;;;2.30;2.10;;;21.20;96.70;;;;;;4952863;28;20980;-68
2022/07/04 04:38:11;;;;;;;4.83;2.70;;;21.30;96.20;;;;;;4963615;28;20642;-63
2022/07/04 04:40:37;;;;;;;2.30;2.10;;;21.40;96.00;;;;;;4970270;28;20735;-66
2022/07/04 04:43:04;;;;;;;2.77;1.90;;;21.60;95.80;;;;;;4981586;28;20635;-64
2022/07/04 04:45:31;;;;;;;2.37;2.20;;;21.70;95.40;;;;;;4970997;28;20759;-66
2022/07/04 04:47:58;;;;;;;1.70;1.60;;;21.90;95.30;;;;;;4975176;28;20734;-66
2022/07/04 04:50:25;;;;;;;1.60;1.50;;;22.00;95.10;;;;;;4989490;28;21048;-64
2022/07/04 04:52:51;;;;;;;2.63;1.97;;;22.20;94.90;;;;;;4990101;28;20659;-64
2022/07/04 04:55:18;;;;;;;2.10;2.00;;;22.40;94.60;;;;;;4973904;28;20734;-70
2022/07/04 04:57:45;;;;;;;2.53;1.73;;;22.60;94.00;;;;;;4970333;28;20724;-66
2022/07/04 05:00:12;;;;;;;2.07;1.90;;;22.60;93.70;;;;;;4969110;28;21008;-65
2022/07/04 05:02:39;;;;;;;1.97;1.73;;;22.70;93.60;;;;;;4989034;28;20726;-67
2022/07/04 05:05:06;;;;;;;2.40;1.83;;;23.00;93.10;;;;;;4955049;28;20636;-64
2022/07/04 05:07:33;;;;;;;2.23;2.13;;;23.20;92.60;;;;;;4975957;28;21086;-66
2022/07/04 05:10:01;;;;;;;1.57;1.50;;;23.20;92.30;;;;;;4993428;28;20721;-65
2022/07/04 05:12:28;;;;;;;1.93;1.83;;;23.20;92.20;;;;;;4979025;28;20667;-65
2022/07/04 05:14:55;;;;;;;3.90;2.07;;;23.40;91.90;;;;;;4973553;28;21173;-68
2022/07/04 05:17:22;;;;;;;1.90;1.80;;;23.70;91.50;;;;;;4971667;28;20988;-65
2022/07/04 05:19:49;;;;;;;1.87;1.77;;;23.70;91.20;;;;;;4974970;28;20611;-67
2022/07/04 05:22:16;;;;;;;3.53;1.97;;;23.90;91.10;;;;;;4974703;28;20749;-66
2022/07/04 05:24:43;;;;;;;2.20;2.00;;;24.00;90.60;;;;;;4991046;28;20645;-64
2022/07/04 05:27:10;;;;;;;2.20;1.83;;;24.10;90.40;;;;;;4993259;28;21196;-64
2022/07/04 05:29:37;;;;;;;2.30;2.10;;;24.30;90.20;;;;;;4977451;28;20635;-67
2022/07/04 05:32:07;;;;;;;2.30;1.90;;;24.50;89.60;;;;;;4974432;28;21031;-64
2022/07/04 05:34:34;;;;;;;1.70;1.70;;;24.50;89.20;;;;;;4971963;28;21265;-65
2022/07/04 05:37:03;;;;;;;4.83;1.73;;;24.80;88.60;;;;;;4974677;28;20623;-67
2022/07/04 05:39:30;;;;;;;5.33;2.03;;;24.80;87.50;;;;;;4972376;28;20998;-67
2022/07/04 05:41:56;;;;;;;1.93;1.83;;;25.10;86.50;;;;;;4972574;28;20789;-62
2022/07/04 05:44:23;;;;;;;2.47;2.07;;;25.30;85.90;;;;;;4973680;28;20627;-68
2022/07/04 05:46:50;;;;;;;4.17;2.10;;;25.40;84.80;;;;;;4983625;28;20634;-65
2022/07/04 05:49:17;;;;;;;6.03;1.83;;;25.70;84.30;;;;;;4992525;28;20646;-65
2022/07/04 05:51:44;;;;;;;2.13;2.03;;;25.90;83.70;;;;;;4992800;28;21209;-66
2022/07/04 05:54:11;;;;;;;2.60;2.40;;;26.10;82.40;;;;;;4984397;28;20699;-65
2022/07/04 05:56:39;;;;;;;2.10;1.90;;;26.00;81.80;;;;;;4972833;28;20622;-66
2022/07/04 05:59:06;;;;;;;1.90;1.80;;;26.20;81.70;;;;;;4977830;28;20772;-66
2022/07/04 06:01:32;;;;;;;2.13;2.03;;;26.40;81.00;;;;;;4974053;28;20643;-66
2022/07/04 06:03:59;;;;;;;2.40;1.97;;;26.80;79.80;;;;;;4975738;28;20682;-66
2022/07/04 06:06:26;;;;;;;2.60;1.90;;;27.20;78.40;;;;;;4973888;28;20729;-66
2022/07/04 06:08:53;;;;;;;2.03;2.00;;;27.70;76.80;;;;;;4972931;28;20623;-65
2022/07/04 06:11:19;;;;;;;1.90;1.77;;;28.10;74.60;;;;;;4987840;28;21260;-66
2022/07/04 06:13:46;;;;;;;7.10;1.90;;;28.40;73.00;;;;;;4991923;28;20773;-64
2022/07/04 06:16:13;;;;;;;3.90;1.57;;;28.30;72.00;;;;;;4990290;28;20618;-64
2022/07/04 06:18:40;;;;;;;4.77;1.73;;;28.70;71.80;;;;;;4972378;28;21409;-65
2022/07/04 06:21:07;;;;;;;4.70;1.87;;;29.00;70.70;;;;;;4973107;28;20742;-66
2022/07/04 06:23:34;;;;;;;5.60;1.90;;;29.50;68.80;;;;;;4988750;28;20618;-65
2022/07/04 06:26:01;;;;;;;3.10;2.10;;;29.80;67.80;;;;;;4993493;28;20621;-66
2022/07/04 06:28:29;;;;;;;2.33;2.13;;;29.70;67.00;;;;;;4992122;28;21228;-65
2022/07/04 06:31:14;;;;;;;2.90;2.40;;;29.90;66.60;;;;;;4991733;28;20650;-66
2022/07/04 06:36:35;;;;;;;2.30;2.10;;;31.10;63.70;;;;;;4958939;28;20615;-67
2022/07/04 06:39:02;;;;;;;1.80;1.70;;;31.80;62.30;;;;;;4970821;28;20616;-65
2022/07/04 06:41:28;;;;;;;3.23;1.90;;;32.20;60.50;;;;;;4961951;28;21319;-65
2022/07/04 06:43:55;;;;;;;4.77;2.10;;;33.00;59.80;;;;;;4978075;28;20645;-67
2022/07/04 06:46:22;;;;;;;4.30;1.93;;;33.80;57.40;;;;;;4977955;28;20720;-65
2022/07/04 06:48:49;;;;;;;2.17;2.07;;;34.00;56.80;;;;;;4976810;28;21012;-66
2022/07/04 06:51:16;;;;;;;2.00;1.90;;;34.40;55.10;;;;;;4981580;28;20758;-65
2022/07/04 06:53:45;;;;;;;3.40;2.00;;;34.90;54.20;;;;;;4971845;28;20677;-66
2022/07/04 06:56:12;;;;;;;2.03;1.93;;;35.70;52.60;;;;;;4986513;28;20626;-65
2022/07/04 06:58:39;;;;;;;2.27;1.90;;;36.30;51.50;;;;;;4990505;28;20634;-67
2022/07/04 07:01:06;;;;;;;2.20;1.53;;;36.90;50.20;;;;;;4991042;28;20638;-65
2022/07/04 07:03:33;;;;;;;2.60;2.13;;;37.70;48.80;;;;;;4990886;28;20618;-66
2022/07/04 07:06:01;;;;;;;1.50;1.50;;;38.70;47.70;;;;;;4971575;28;20686;-66
2022/07/04 07:08:30;;;;;;;3.90;2.20;;;39.20;45.90;;;;;;4973072;28;20615;-66
2022/07/04 07:10:58;;;;;;;2.03;1.90;;;38.70;45.40;;;;;;4971880;28;21064;-66
2022/07/04 07:13:24;;;;;;;2.07;1.93;;;38.50;46.20;;;;;;4975019;28;20651;-65
2022/07/04 07:15:51;;;;;;;1.50;1.40;;;38.20;45.40;;;;;;4991778;28;20985;-66
2022/07/04 07:18:18;;;;;;;1.73;1.57;;;38.30;45.30;;;;;;4990316;28;20606;-66
2022/07/04 07:20:45;;;;;;;1.73;1.63;;;37.90;45.30;;;;;;4990771;28;20700;-65
2022/07/04 07:23:12;;;;;;;1.53;1.53;;;37.60;45.80;;;;;;4990536;28;20614;-69
2022/07/04 07:25:39;;;;;;;1.90;1.80;;;37.00;45.70;;;;;;4992583;28;20624;-65
2022/07/04 07:28:05;;;;;;;4.43;2.47;;;37.20;45.90;;;;;;4991067;28;20618;-68
2022/07/04 07:30:32;;;;;;;1.90;1.80;;;37.50;45.70;;;;;;4974227;28;20643;-65
2022/07/04 07:32:59;;;;;;;1.77;1.67;;;38.20;45.30;;;;;;4961227;28;20667;-65
2022/07/04 07:35:26;;;;;;;2.73;2.53;;;38.80;44.10;;;;;;4971266;28;20623;-65
2022/07/04 07:37:53;;;;;;;2.00;1.90;;;38.90;44.00;;;;;;4972042;28;20662;-65
2022/07/04 07:40:21;;;;;;;2.30;2.10;;;38.10;44.30;;;;;;4988273;28;21293;-67
2022/07/04 07:42:48;;;;;;;1.50;1.50;;;38.30;44.20;;;;;;4970024;28;20627;-65
2022/07/04 07:45:14;;;;;;;1.70;1.70;;;38.10;44.60;;;;;;4970821;28;20623;-67
2022/07/04 07:47:41;;;;;;;2.43;2.27;;;38.80;44.20;;;;;;4987689;28;21009;-65
2022/07/04 07:50:09;;;;;;;3.67;1.73;;;38.40;43.70;;;;;;4990557;28;20614;-65
2022/07/04 07:52:36;;;;;;;1.70;1.70;;;37.60;44.10;;;;;;4991623;28;20626;-64
2022/07/04 07:55:03;;;;;;;1.50;1.40;;;37.00;44.70;;;;;;4990668;28;20622;-65
2022/07/04 07:57:30;;;;;;;2.53;1.87;;;36.60;45.20;;;;;;4972448;28;21198;-65
2022/07/04 07:59:57;;;;;;;8.03;2.13;;;35.70;45.50;;;;;;4984477;28;20622;-65
2022/07/04 08:05:11;;;;;;;1.53;1.53;;;34.90;45.70;;;;;;4960348;28;20619;-66
2022/07/04 08:07:39;;;;;;;1.80;1.70;;;35.20;45.60;;;;;;4970176;28;20642;-64
2022/07/04 08:10:07;;;;;;;2.37;2.00;;;34.40;46.60;;;;;;4970415;28;20611;-66
2022/07/04 08:12:34;;;;;;;1.93;1.83;;;34.00;47.20;;;;;;4972508;28;20646;-65
2022/07/04 08:15:01;;;;;;;1.73;1.63;;;33.70;47.40;;;;;;4991555;28;20664;-66
2022/07/04 08:17:33;;;;;;;2.43;1.80;;;33.30;47.80;;;;;;4977956;28;21301;-66
2022/07/04 08:20:00;;;;;;;2.53;2.43;;;33.30;47.80;;;;;;4973982;28;20971;-63
2022/07/04 08:22:28;;;;;;;1.70;1.60;;;32.90;48.60;;;;;;4990086;28;21035;-65
2022/07/04 08:24:55;;;;;;;2.20;2.07;;;33.20;48.40;;;;;;4988997;28;20725;-67
2022/07/04 08:27:23;;;;;;;1.70;1.70;;;32.40;49.20;;;;;;4990263;28;20712;-65
2022/07/04 08:29:57;;;;;;;2.23;2.13;;;32.00;50.00;;;;;;4980183;28;20623;-68
2022/07/04 08:32:24;;;;;;;3.43;2.03;;;31.70;50.30;;;;;;4970759;28;20661;-65
2022/07/04 08:34:51;;;;;;;1.63;1.57;;;31.20;50.90;;;;;;4970232;28;20726;-65
2022/07/04 08:37:18;;;;;;;1.77;1.67;;;30.90;51.20;;;;;;4970569;28;20622;-65
2022/07/04 08:39:45;;;;;;;2.30;2.00;;;31.10;51.10;;;;;;4972078;28;20753;-66
2022/07/04 08:42:16;;;;;;;1.97;1.80;;;30.80;51.50;;;;;;4975159;28;20667;-65
2022/07/04 08:44:50;;;;;;;2.87;2.77;;;30.30;52.00;;;;;;4974051;28;21221;-63
2022/07/04 08:47:20;;;;;;;5.53;4.50;;;30.40;52.10;;;;;;4975775;28;20627;-67
2022/07/04 08:49:55;;;;;;;1.73;1.63;;;30.50;52.20;;;;;;4970877;28;20611;-67
2022/07/04 08:52:36;;;;;;;2.90;2.00;;;30.40;52.30;;;;;;4974378;28;20725;-67
2022/07/04 09:00:38;;;;;;;5.40;2.00;;;30.50;52.20;;;;;;4991472;28;21257;-67
2022/07/04 09:03:06;;;;;;;1.73;1.63;;;30.40;51.90;;;;;;4992252;28;21308;-62
2022/07/04 09:05:34;;;;;;;3.90;2.10;;;30.20;52.40;;;;;;4977117;28;20729;-66
2022/07/04 09:08:02;;;;;;;2.00;1.90;;;29.80;53.00;;;;;;4978675;28;20657;-67
2022/07/04 09:10:30;;;;;;;2.30;2.20;;;29.90;52.80;;;;;;4972806;28;20698;-65
2022/07/04 09:12:57;;;;;;;2.17;2.07;;;29.50;53.60;;;;;;4975036;28;20986;-65
2022/07/04 09:15:38;;;;;;;3.37;2.13;;;29.30;53.80;;;;;;4979270;28;20643;-65
2022/07/04 09:18:05;;;;;;;2.23;1.57;;;29.50;54.00;;;;;;4972946;28;20647;-66
2022/07/04 09:20:33;;;;;;;4.93;1.90;;;29.50;54.30;;;;;;4973428;28;20676;-65
2022/07/04 09:23:00;;;;;;;3.07;2.40;;;29.50;53.30;;;;;;4956519;28;20631;-65
2022/07/04 09:25:27;;;;;;;1.80;1.70;;;29.30;53.70;;;;;;4974800;28;20633;-65
2022/07/04 09:27:56;;;;;;;1.70;1.63;;;29.30;53.90;;;;;;4974949;28;20653;-65
2022/07/04 09:30:26;;;;;;;2.00;1.90;;;29.20;53.80;;;;;;4977692;28;20738;-67
2022/07/04 09:33:04;;;;;;;4.03;2.37;;;29.40;53.50;;;;;;4992813;28;20622;-66
2022/07/04 09:35:32;;;;;;;1.63;1.53;;;29.20;53.40;;;;;;4974045;28;20631;-68
2022/07/04 09:38:04;;;;;;;1.90;1.80;;;29.20;53.70;;;;;;4972717;28;21206;-65
2022/07/04 09:40:32;;;;;;;1.93;1.67;;;29.60;52.80;;;;;;4976998;28;20750;-67
2022/07/04 09:43:10;;;;;;;1.37;1.27;;;29.90;52.40;;;;;;4992401;28;20621;-67
2022/07/04 09:45:56;;;;;;;1.63;1.43;;;29.90;51.80;;;;;;4992822;28;20618;-65
2022/07/04 09:48:23;;;;;;;1.50;1.40;;;29.90;51.80;;;;;;4993289;28;20649;-65
2022/07/04 09:50:50;;;;;;;2.10;1.90;;;30.00;51.60;;;;;;4979136;28;20744;-65
2022/07/04 09:53:18;;;;;;;1.60;1.60;;;29.70;52.30;;;;;;4972843;28;20661;-68
2022/07/04 09:55:49;;;;;;;2.20;2.10;;;29.20;53.00;;;;;;4973322;28;20730;-65
2022/07/04 09:58:16;;;;;;;1.70;1.60;;;29.20;53.10;;;;;;4977521;28;20638;-66
2022/07/04 10:00:44;;;;;;;2.20;1.77;;;29.10;53.40;;;;;;4978887;28;20666;-65
2022/07/04 10:03:25;;;;;;;1.37;1.37;;;29.00;53.10;;;;;;4969655;28;20640;-64
2022/07/04 10:06:10;;;;;;;1.80;1.70;;;29.00;52.80;;;;;;4979272;28;20664;-65
2022/07/04 10:08:41;;;;;;;2.37;1.67;;;28.80;53.10;;;;;;4967201;28;20615;-64
2022/07/04 10:11:09;;;;;;;1.43;1.33;;;29.00;52.90;;;;;;4972086;28;20866;-67
2022/07/04 10:13:43;;;;;;;2.97;1.70;;;29.00;51.80;;;;;;4973076;28;20662;-65
2022/07/04 10:16:11;;;;;;;1.93;1.40;;;29.10;52.60;;;;;;4972047;28;20641;-64
2022/07/04 10:18:38;;;;;;;1.50;1.50;;;29.10;52.70;;;;;;4968027;28;20880;-64
2022/07/04 10:21:04;;;;;;;1.63;1.43;;;28.90;52.90;;;;;;4969112;28;20647;-65
2022/07/04 10:23:34;;;;;;;1.40;1.40;;;28.80;53.10;;;;;;4973714;28;20622;-64
2022/07/04 10:26:02;;;;;;;5.33;1.47;;;28.80;53.40;;;;;;4967308;28;20627;-64
2022/07/04 10:28:29;;;;;;;1.40;1.30;;;28.90;53.30;;;;;;4959354;28;21267;-64
2022/07/04 10:30:58;;;;;;;1.60;1.50;;;28.90;53.10;;;;;;4961063;28;20643;-65
2022/07/04 10:33:27;;;;;;;2.40;1.67;;;28.80;54.10;;;;;;4972707;28;20627;-65
2022/07/04 10:35:55;;;;;;;6.97;6.27;;;28.40;53.70;;;;;;4973282;28;20624;-63
2022/07/04 10:38:34;;;;;;;2.83;2.60;;;28.50;53.00;;;;;;4972629;28;20621;-65
2022/07/04 10:41:08;;;;;;;1.50;1.40;;;28.30;54.40;;;;;;4973825;28;20718;-65
2022/07/04 10:43:39;;;;;;;1.80;1.70;;;28.20;53.60;;;;;;4960122;28;20629;-64
2022/07/04 10:46:15;;;;;;;1.50;1.50;;;28.20;53.70;;;;;;4961460;28;20634;-65
2022/07/04 10:48:52;;;;;;;1.43;1.40;;;28.30;53.90;;;;;;4953523;28;20616;-65
2022/07/04 10:51:54;;;;;;;8.63;1.60;;;28.50;53.30;;;;;;4965348;28;20638;-65
2022/07/04 10:54:33;;;;;;;1.10;1.10;;;28.40;52.80;;;;;;4973449;28;20672;-64
2022/07/04 10:57:24;;;;;;;1.20;1.20;;;28.50;51.10;;;;;;4963078;28;20993;-64
2022/07/04 10:59:54;;;;;;;4.43;1.20;;;28.40;51.00;;;;;;4980475;28;21194;-65
2022/07/04 11:02:24;;;;;;;1.13;1.13;;;28.50;51.20;;;;;;4960564;28;20648;-64
2022/07/04 11:05:05;;;;;;;1.30;1.20;;;28.50;51.10;;;;;;4960147;28;20658;-64
2022/07/04 11:07:35;;;;;;;1.20;1.00;;;28.60;51.70;;;;;;4953788;28;21195;-65
2022/07/04 11:10:11;;;;;;;1.30;1.20;;;28.70;50.90;;;;;;4953194;28;20627;-62
2022/07/04 11:12:53;;;;;;;1.40;1.30;;;28.80;50.60;;;;;;4953902;28;20627;-65
2022/07/04 11:15:43;;;;;;;2.30;1.13;;;28.80;50.70;;;;;;4953625;28;20659;-65
2022/07/04 11:18:14;;;;;;;1.40;1.30;;;28.80;51.30;;;;;;4950151;28;20635;-66
2022/07/04 11:20:43;;;;;;;1.20;1.20;;;28.90;51.20;;;;;;4970789;28;21462;-64
2022/07/04 11:23:12;;;;;;;3.07;1.70;;;28.90;51.00;;;;;;4962336;28;20626;-70
2022/07/04 11:25:42;;;;;;;1.43;1.30;;;28.80;50.90;;;;;;4973501;28;20631;-64
2022/07/04 11:28:35;;;;;;;2.40;1.50;;;28.60;51.10;;;;;;4959355;28;20715;-65
2022/07/04 11:31:12;;;;;;;2.43;1.23;;;28.50;51.50;;;;;;4953564;28;20734;-64
2022/07/04 11:33:41;;;;;;;1.20;1.20;;;28.30;51.80;;;;;;4954308;28;20710;-65
2022/07/04 11:36:10;;;;;;;1.40;1.30;;;28.20;51.50;;;;;;4963314;28;20613;-66
2022/07/04 11:38:49;;;;;;;5.33;1.40;;;28.20;51.10;;;;;;4966227;28;20623;-65
2022/07/04 11:47:15;;;;;;;1.83;1.20;;;27.70;51.60;;;;;;4954088;28;20616;-65
2022/07/04 11:49:47;;;;;;;2.73;1.40;;;27.60;51.50;;;;;;4962415;28;20652;-65
2022/07/04 11:52:15;;;;;;;1.77;1.27;;;27.30;52.80;;;;;;4966592;28;20786;-65
2022/07/04 11:55:03;;;;;;;2.70;1.27;;;27.30;53.10;;;;;;4952430;28;20678;-65
2022/07/04 11:57:34;;;;;;;1.63;1.33;;;27.20;53.70;;;;;;4952882;28;20632;-64
2022/07/04 12:00:10;;;;;;;1.67;1.17;;;27.30;53.60;;;;;;4960973;28;20627;-68
2022/07/04 12:02:44;;;;;;;5.90;1.50;;;27.40;53.20;;;;;;4959747;28;21207;-65
2022/07/04 12:05:12;;;;;;;1.40;1.37;;;27.30;53.60;;;;;;4959645;28;20667;-66
2022/07/04 12:07:44;;;;;;;1.50;1.50;;;27.40;53.50;;;;;;4963246;28;20628;-67
2022/07/04 12:10:28;;;;;;;1.40;1.30;;;27.30;55.70;;;;;;4967518;28;20641;-66
2022/07/04 12:13:02;;;;;;;3.97;1.00;;;27.40;54.00;;;;;;4976162;28;20638;-65
2022/07/04 12:15:37;;;;;;;1.30;1.20;;;27.60;52.50;;;;;;4952744;28;21346;-66
2022/07/04 12:18:14;;;;;;;1.50;1.17;;;27.80;52.50;;;;;;4952785;28;20711;-66
2022/07/04 12:20:41;;;;;;;1.30;1.30;;;27.90;52.20;;;;;;4952809;28;20674;-65
2022/07/04 12:23:09;;;;;;;1.40;1.30;;;28.00;52.00;;;;;;4967555;28;20733;-66
2022/07/04 12:25:38;;;;;;;1.00;1.00;;;28.10;52.10;;;;;;4975129;28;20722;-66
2022/07/04 12:28:10;;;;;;;2.27;1.30;;;28.10;51.70;;;;;;4966480;28;20670;-67
2022/07/04 12:30:47;;;;;;;1.80;1.70;;;28.00;52.10;;;;;;4951583;28;20671;-65
2022/07/04 12:33:19;;;;;;;1.47;1.37;;;27.90;52.00;;;;;;4961307;28;20678;-66
2022/07/04 12:35:51;;;;;;;1.33;1.23;;;27.70;52.20;;;;;;4966195;28;21335;-67
2022/07/04 12:38:22;;;;;;;1.77;1.27;;;27.90;53.00;;;;;;4977083;28;20614;-68
2022/07/04 12:41:11;;;;;;;1.53;1.47;;;28.00;52.70;;;;;;4952806;28;20683;-66
2022/07/04 12:43:41;;;;;;;1.37;1.27;;;28.10;52.80;;;;;;4952781;28;20691;-65
2022/07/04 12:46:09;;;;;;;3.67;1.50;;;28.00;52.50;;;;;;4952825;28;20632;-66
2022/07/04 12:48:37;;;;;;;1.30;1.20;;;28.10;52.20;;;;;;4952365;28;21049;-68
2022/07/04 12:51:28;;;;;;;1.40;1.30;;;28.10;52.50;;;;;;4961747;28;20644;-62
2022/07/04 12:53:57;;;;;;;1.43;1.30;;;27.90;52.50;;;;;;4952418;28;21194;-65
2022/07/04 12:56:31;;;;;;;1.33;1.20;;;28.00;52.50;;;;;;4952466;28;21252;-66
2022/07/04 12:59:03;;;;;;;1.17;1.07;;;28.10;52.20;;;;;;4952354;28;20737;-68
2022/07/04 13:01:39;;;;;;;1.20;1.20;;;27.80;52.30;;;;;;4952791;28;21292;-65
2022/07/04 13:04:06;;;;;;;1.00;1.00;;;27.50;52.70;;;;;;4952421;28;21247;-66
2022/07/04 13:06:34;;;;;;;1.20;1.10;;;27.50;52.40;;;;;;4959186;28;20619;-67
2022/07/04 13:09:03;;;;;;;2.00;1.63;;;27.50;52.30;;;;;;4957763;28;20634;-66
2022/07/04 13:14:15;;;;;;;1.60;1.50;;;27.40;52.70;;;;;;4952296;28;20658;-66
2022/07/04 13:16:42;;;;;;;1.40;1.30;;;27.40;53.50;;;;;;4952415;28;20626;-66
2022/07/04 13:19:09;;;;;;;1.50;1.40;;;27.50;53.20;;;;;;4952478;28;20646;-66
2022/07/04 13:21:36;;;;;;;1.20;1.20;;;27.60;53.50;;;;;;4952362;28;20658;-65